Time;durP1;ratioP1;P1;durP2;ratioP2;P2;SDS_P1;SDS_P2;PMS_P1;PMS_P2;Temp;Humidity;BMP_temperature;BMP_pressure;BME280_temperature;BME280_humidity;BME280_pressure;Samples;Min_cycle;Max_cycle;Signal;HPM_P1;HPM_P2
2021/07/23 00:01:27;;;;;;;;;;;21.60;78.90;;;;;;5015011;28;1383;-66
2021/07/23 00:03:53;;;;;;;;;;;21.60;78.90;;;;;;4996684;28;1970;-66
2021/07/23 00:06:18;;;;;;;;;;;21.60;78.90;;;;;;5014446;28;1213;-66
2021/07/23 00:08:44;;;;;;;;;;;21.60;78.90;;;;;;5026709;28;1608;-66
2021/07/23 00:11:09;;;;;;;;;;;21.60;78.90;;;;;;5028545;28;1049;-66
2021/07/23 00:13:34;;;;;;;;;;;21.60;78.90;;;;;;5034207;28;1679;-67
2021/07/23 00:16:00;;;;;;;;;;;21.60;78.90;;;;;;5003780;28;1401;-67
2021/07/23 00:18:25;;;;;;;;;;;21.60;79.00;;;;;;5011832;28;1260;-67
2021/07/23 00:20:51;;;;;;;;;;;21.60;79.00;;;;;;5012177;28;1393;-67
2021/07/23 00:23:16;;;;;;;;;;;21.60;79.00;;;;;;5009679;28;1969;-67
2021/07/23 00:25:42;;;;;;;;;;;21.60;79.00;;;;;;5008707;28;1417;-68
2021/07/23 00:28:07;;;;;;;;;;;21.60;79.00;;;;;;5014520;28;1380;-67
2021/07/23 00:30:32;;;;;;;;;;;21.60;79.00;;;;;;5014333;28;1391;-67
2021/07/23 00:32:59;;;;;;;;;;;21.60;78.90;;;;;;5014441;28;1446;-68
2021/07/23 00:35:27;;;;;;;;;;;21.60;78.90;;;;;;4996493;28;1501;-67
2021/07/23 00:37:52;;;;;;;;;;;21.60;79.00;;;;;;5014572;28;1163;-67
2021/07/23 00:40:17;;;;;;;;;;;21.60;79.00;;;;;;5014212;28;1674;-67
2021/07/23 00:42:43;;;;;;;;;;;21.60;79.00;;;;;;5014228;28;1405;-67
2021/07/23 00:45:09;;;;;;;;;;;21.60;79.00;;;;;;5012442;28;1879;-67
2021/07/23 00:47:35;;;;;;;;;;;21.60;79.00;;;;;;5014211;28;1357;-68
2021/07/23 00:50:00;;;;;;;;;;;21.60;79.00;;;;;;4996595;28;1763;-68
2021/07/23 00:52:26;;;;;;;;;;;21.60;79.00;;;;;;5003523;28;1416;-67
2021/07/23 00:54:51;;;;;;;;;;;21.60;79.00;;;;;;5019901;28;1650;-67
2021/07/23 00:57:17;;;;;;;;;;;21.60;79.00;;;;;;5014079;28;1426;-67
2021/07/23 00:59:42;;;;;;;;;;;21.60;79.00;;;;;;5013862;28;1525;-67
2021/07/23 01:02:08;;;;;;;;;;;21.60;79.00;;;;;;4976842;28;1356;-66
2021/07/23 01:04:33;;;;;;;;;;;21.60;79.00;;;;;;5006899;28;1910;-67
2021/07/23 01:06:58;;;;;;;;;;;21.60;79.00;;;;;;4996222;28;1575;-66
2021/07/23 01:09:24;;;;;;;;;;;21.60;79.00;;;;;;4996212;28;1460;-67
2021/07/23 01:11:49;;;;;;;;;;;21.60;79.00;;;;;;5013707;28;1500;-66
2021/07/23 01:14:15;;;;;;;;;;;21.60;79.00;;;;;;5013358;28;1745;-67
2021/07/23 01:16:40;;;;;;;;;;;21.60;79.00;;;;;;4996165;28;1735;-66
2021/07/23 01:19:06;;;;;;;;;;;21.60;79.00;;;;;;4996160;28;1625;-67
2021/07/23 01:21:31;;;;;;;;;;;21.60;79.00;;;;;;4982913;28;1402;-66
2021/07/23 01:23:59;;;;;;;;;;;21.60;79.00;;;;;;4988710;28;1918;-67
2021/07/23 01:26:25;;;;;;;;;;;21.60;79.00;;;;;;4995765;28;1484;-66
2021/07/23 01:28:50;;;;;;;;;;;21.60;79.00;;;;;;4995980;28;1376;-66
2021/07/23 01:31:16;;;;;;;;;;;21.60;79.00;;;;;;5013351;28;1504;-67
2021/07/23 01:33:41;;;;;;;;;;;21.60;79.00;;;;;;5013316;28;1305;-66
2021/07/23 01:36:07;;;;;;;;;;;21.60;79.00;;;;;;5013047;28;1461;-66
2021/07/23 01:38:32;;;;;;;;;;;21.60;79.00;;;;;;4995969;28;1191;-66
2021/07/23 01:40:58;;;;;;;;;;;21.60;79.00;;;;;;4995646;28;1715;-66
2021/07/23 01:43:24;;;;;;;;;;;21.60;79.00;;;;;;5013082;28;1959;-66
2021/07/23 01:45:49;;;;;;;;;;;21.60;79.10;;;;;;5012809;28;1354;-67
2021/07/23 01:48:14;;;;;;;;;;;21.60;79.10;;;;;;4995806;28;1664;-67
2021/07/23 01:50:40;;;;;;;;;;;21.60;79.10;;;;;;5013223;28;1598;-66
2021/07/23 01:53:05;;;;;;;;;;;21.60;79.10;;;;;;5025349;28;1643;-67
2021/07/23 01:55:31;;;;;;;;;;;21.60;79.10;;;;;;5013458;28;1304;-67
2021/07/23 01:57:56;;;;;;;;;;;21.60;79.80;;;;;;4995893;28;1657;-68
2021/07/23 02:00:22;;;;;;;;;;;21.60;79.10;;;;;;4995402;28;1614;-67
2021/07/23 02:02:47;;;;;;;;;;;21.60;79.10;;;;;;5013311;28;1662;-67
2021/07/23 02:05:13;;;;;;;;;;;21.60;79.10;;;;;;5012521;28;1959;-66
2021/07/23 02:07:38;;;;;;;;;;;21.60;79.10;;;;;;5013206;28;1648;-66
2021/07/23 02:10:04;;;;;;;;;;;21.60;79.10;;;;;;5012989;28;1712;-67
2021/07/23 02:12:30;;;;;;;;;;;21.60;79.10;;;;;;4995469;28;1396;-66
2021/07/23 02:14:55;;;;;;;;;;;21.60;79.10;;;;;;5012495;28;1495;-67
2021/07/23 02:17:21;;;;;;;;;;;21.60;79.10;;;;;;5012980;28;1380;-66
2021/07/23 02:19:46;;;;;;;;;;;21.60;79.10;;;;;;5012927;28;1435;-66
2021/07/23 02:22:12;;;;;;;;;;;21.60;79.10;;;;;;5020151;28;1493;-67
2021/07/23 02:24:37;;;;;;;;;;;21.60;79.10;;;;;;4994915;28;1883;-67
2021/07/23 02:27:03;;;;;;;;;;;21.60;79.10;;;;;;5013007;28;1462;-67
2021/07/23 02:29:28;;;;;;;;;;;21.60;79.10;;;;;;5012851;28;1613;-67
2021/07/23 02:31:53;;;;;;;;;;;21.60;79.10;;;;;;5012872;28;1380;-67
2021/07/23 02:34:19;;;;;;;;;;;21.60;79.10;;;;;;5012246;28;1359;-68
2021/07/23 02:36:44;;;;;;;;;;;21.60;79.10;;;;;;5012855;28;1357;-67
2021/07/23 02:39:10;;;;;;;;;;;21.60;79.10;;;;;;5012398;28;1698;-67
2021/07/23 02:41:35;;;;;;;;;;;21.60;79.10;;;;;;5012720;28;1354;-67
2021/07/23 02:44:01;;;;;;;;;;;21.60;79.10;;;;;;5012364;28;1906;-67
2021/07/23 02:46:26;;;;;;;;;;;21.60;79.10;;;;;;5012763;28;1687;-67
2021/07/23 02:48:51;;;;;;;;;;;21.60;79.10;;;;;;5012835;28;1413;-67
2021/07/23 02:51:17;;;;;;;;;;;21.60;79.10;;;;;;5012614;28;1394;-68
2021/07/23 02:53:42;;;;;;;;;;;21.60;79.10;;;;;;5012886;28;1494;-67
2021/07/23 02:56:08;;;;;;;;;;;21.60;79.10;;;;;;4994984;28;1684;-67
2021/07/23 02:58:37;;;;;;;;;;;21.60;79.20;;;;;;5012734;28;1586;-68
2021/07/23 03:01:06;;;;;;;;;;;21.60;79.10;;;;;;5012805;28;1659;-66
2021/07/23 03:03:32;;;;;;;;;;;21.60;79.10;;;;;;4994824;28;1906;-66
2021/07/23 03:05:58;;;;;;;;;;;21.60;79.10;;;;;;4994848;28;1668;-66
2021/07/23 03:08:23;;;;;;;;;;;21.60;79.10;;;;;;4997784;28;1675;-67
2021/07/23 03:10:49;;;;;;;;;;;21.60;79.10;;;;;;5016078;28;1310;-66
2021/07/23 03:13:14;;;;;;;;;;;21.60;79.10;;;;;;5016205;28;1630;-66
2021/07/23 03:15:40;;;;;;;;;;;21.60;79.10;;;;;;5015686;28;1471;-66
2021/07/23 03:18:05;;;;;;;;;;;21.60;79.20;;;;;;5016044;28;1386;-66
2021/07/23 03:20:30;;;;;;;;;;;21.60;79.90;;;;;;5020016;28;1360;-66
2021/07/23 03:22:56;;;;;;;;;;;21.60;79.20;;;;;;5019025;28;1785;-67
2021/07/23 03:25:21;;;;;;;;;;;21.60;79.20;;;;;;5015248;28;1910;-67
2021/07/23 03:27:47;;;;;;;;;;;21.60;79.20;;;;;;4998187;28;1651;-67
2021/07/23 03:30:12;;;;;;;;;;;21.60;79.20;;;;;;5015614;28;1201;-67
2021/07/23 03:32:38;;;;;;;;;;;21.60;79.10;;;;;;4998049;28;1484;-67
2021/07/23 03:35:03;;;;;;;;;;;21.60;79.10;;;;;;5015253;28;1427;-67
2021/07/23 03:37:29;;;;;;;;;;;21.60;79.20;;;;;;5015451;28;1364;-66
2021/07/23 03:39:54;;;;;;;;;;;21.60;79.20;;;;;;5015515;28;1417;-68
2021/07/23 03:42:20;;;;;;;;;;;21.60;79.90;;;;;;5015638;28;1628;-66
2021/07/23 03:44:46;;;;;;;;;;;21.60;79.20;;;;;;5014759;28;1968;-66
2021/07/23 03:47:11;;;;;;;;;;;21.60;79.20;;;;;;4997951;28;1606;-66
2021/07/23 03:49:37;;;;;;;;;;;21.60;79.20;;;;;;4997735;28;1595;-67
2021/07/23 03:52:02;;;;;;;;;;;21.60;79.20;;;;;;5015449;28;1410;-66
2021/07/23 03:54:28;;;;;;;;;;;21.60;79.20;;;;;;5014613;28;1709;-65
2021/07/23 03:56:53;;;;;;;;;;;21.60;79.20;;;;;;5015253;28;1388;-66
2021/07/23 03:59:19;;;;;;;;;;;21.60;79.20;;;;;;5015085;28;1184;-67
2021/07/23 04:01:44;;;;;;;;;;;21.60;79.20;;;;;;5014891;28;1351;-66
2021/07/23 04:04:10;;;;;;;;;;;21.60;79.20;;;;;;5014755;28;1914;-68
2021/07/23 04:06:35;;;;;;;;;;;21.60;79.90;;;;;;5014949;28;1673;-67
2021/07/23 04:09:00;;;;;;;;;;;21.60;79.20;;;;;;5015231;28;1571;-67
2021/07/23 04:11:29;;;;;;;;;;;21.60;79.20;;;;;;5014975;28;1346;-67
2021/07/23 04:13:54;;;;;;;;;;;21.60;79.20;;;;;;5014683;28;1665;-68
2021/07/23 04:16:19;;;;;;;;;;;21.60;79.20;;;;;;5014516;28;1682;-66
2021/07/23 04:18:45;;;;;;;;;;;21.60;79.20;;;;;;5014737;28;1682;-66
2021/07/23 04:21:10;;;;;;;;;;;21.60;79.20;;;;;;5022340;28;1427;-66
2021/07/23 04:23:36;;;;;;;;;;;21.60;79.20;;;;;;4996986;28;1902;-68
2021/07/23 04:26:01;;;;;;;;;;;21.60;79.20;;;;;;5014336;28;1378;-66
2021/07/23 04:28:27;;;;;;;;;;;21.60;79.20;;;;;;5014549;28;1674;-67
2021/07/23 04:30:52;;;;;;;;;;;21.60;79.20;;;;;;5014487;28;1409;-66
2021/07/23 04:33:17;;;;;;;;;;;21.60;79.20;;;;;;5014392;28;1374;-66
2021/07/23 04:35:43;;;;;;;;;;;21.60;79.20;;;;;;5014291;28;1807;-67
2021/07/23 04:38:08;;;;;;;;;;;21.60;79.20;;;;;;5014477;28;1383;-67
2021/07/23 04:40:36;;;;;;;;;;;21.60;79.20;;;;;;5014357;28;1638;-67
2021/07/23 04:43:01;;;;;;;;;;;21.60;79.20;;;;;;5014163;28;1962;-68
2021/07/23 04:45:26;;;;;;;;;;;21.60;79.20;;;;;;5013875;28;1258;-67
2021/07/23 04:47:52;;;;;;;;;;;21.60;79.20;;;;;;5014384;28;1380;-67
2021/07/23 04:50:17;;;;;;;;;;;21.60;79.20;;;;;;5014076;28;1410;-68
2021/07/23 04:52:43;;;;;;;;;;;21.60;79.20;;;;;;5014399;28;1460;-67
2021/07/23 04:55:09;;;;;;;;;;;21.60;79.20;;;;;;5014119;28;1657;-67
2021/07/23 04:57:44;;;;;;;;;;;21.60;79.30;;;;;;5014008;28;1369;-67
2021/07/23 05:00:10;;;;;;;;;;;21.60;79.30;;;;;;5013924;28;1732;-68
2021/07/23 05:02:41;;;;;;;;;;;21.60;79.20;;;;;;5013840;28;1382;-67
2021/07/23 05:05:08;;;;;;;;;;;21.60;79.20;;;;;;4996282;28;1965;-67
2021/07/23 05:07:33;;;;;;;;;;;21.60;79.30;;;;;;5013932;28;1368;-67
2021/07/23 05:09:59;;;;;;;;;;;21.60;79.30;;;;;;5013808;28;1653;-67
2021/07/23 05:12:24;;;;;;;;;;;21.60;79.30;;;;;;5013774;28;1699;-67
2021/07/23 05:14:49;;;;;;;;;;;21.60;79.20;;;;;;4995696;28;1532;-67
2021/07/23 05:17:15;;;;;;;;;;;21.60;79.30;;;;;;4996237;28;1669;-68
2021/07/23 05:19:40;;;;;;;;;;;21.60;79.30;;;;;;5013597;28;1707;-67
2021/07/23 05:22:06;;;;;;;;;;;21.60;79.30;;;;;;5020361;28;1453;-67
2021/07/23 05:24:31;;;;;;;;;;;21.60;79.20;;;;;;4995625;28;1956;-67
2021/07/23 05:26:58;;;;;;;;;;;21.60;79.30;;;;;;5013515;28;1382;-67
2021/07/23 05:29:23;;;;;;;;;;;21.60;79.20;;;;;;5013287;28;1442;-67
2021/07/23 05:31:49;;;;;;;;;;;21.60;79.30;;;;;;5013234;28;1092;-67
2021/07/23 05:34:14;;;;;;;;;;;21.60;79.20;;;;;;4995519;28;1429;-66
2021/07/23 05:36:40;;;;;;;;;;;21.60;79.30;;;;;;5013432;28;1672;-67
2021/07/23 05:39:06;;;;;;;;;;;21.60;79.20;;;;;;4995756;28;1455;-67
2021/07/23 05:41:32;;;;;;;;;;;21.60;79.30;;;;;;4995817;28;1155;-66
2021/07/23 05:43:57;;;;;;;;;;;21.60;79.20;;;;;;5012924;28;1906;-67
2021/07/23 05:46:23;;;;;;;;;;;21.60;79.30;;;;;;5013355;28;1373;-67
2021/07/23 05:48:48;;;;;;;;;;;21.60;79.30;;;;;;5013277;28;1650;-67
2021/07/23 05:51:14;;;;;;;;;;;21.60;79.30;;;;;;5013351;28;1148;-68
2021/07/23 05:53:39;;;;;;;;;;;21.60;79.20;;;;;;5013038;28;1600;-68
2021/07/23 05:56:05;;;;;;;;;;;21.60;79.30;;;;;;5013050;28;1666;-68
2021/07/23 05:58:30;;;;;;;;;;;21.60;79.20;;;;;;4995797;28;1477;-67
2021/07/23 06:00:56;;;;;;;;;;;21.60;79.20;;;;;;4995436;28;1682;-66
2021/07/23 06:03:21;;;;;;;;;;;21.60;79.30;;;;;;4995490;28;1906;-66
2021/07/23 06:05:47;;;;;;;;;;;21.60;79.30;;;;;;4995338;28;1206;-66
2021/07/23 06:08:12;;;;;;;;;;;21.60;79.20;;;;;;4995563;28;1404;-67
2021/07/23 06:10:38;;;;;;;;;;;21.60;79.30;;;;;;5013110;28;1657;-67
2021/07/23 06:13:03;;;;;;;;;;;21.60;79.10;;;;;;5013110;28;1875;-67
2021/07/23 06:15:28;;;;;;;;;;;21.60;79.50;;;;;;4995086;28;1619;-67
2021/07/23 06:17:54;;;;;;;;;;;21.60;79.30;;;;;;5013151;28;1654;-67
2021/07/23 06:20:20;;;;;;;;;;;21.60;79.30;;;;;;5015900;28;1621;-67
2021/07/23 06:22:45;;;;;;;;;;;21.60;79.20;;;;;;5017715;28;1437;-67
2021/07/23 06:25:11;;;;;;;;;;;21.60;79.20;;;;;;5012517;28;1960;-67
2021/07/23 06:27:36;;;;;;;;;;;21.60;79.20;;;;;;5012950;28;1377;-66
2021/07/23 06:30:02;;;;;;;;;;;21.60;79.20;;;;;;5012936;28;1281;-67
2021/07/23 06:32:29;;;;;;;;;;;21.60;79.10;;;;;;5006237;28;1430;-66
2021/07/23 06:34:55;;;;;;;;;;;21.60;79.10;;;;;;5008987;28;1354;-67
2021/07/23 06:37:21;;;;;;;;;;;21.60;79.10;;;;;;5028189;28;1294;-66
2021/07/23 06:39:47;;;;;;;;;;;21.60;79.10;;;;;;5032451;28;1645;-66
2021/07/23 06:42:13;;;;;;;;;;;21.60;79.10;;;;;;4995460;28;1311;-66
2021/07/23 06:44:38;;;;;;;;;;;21.60;79.10;;;;;;5012989;28;1894;-66
2021/07/23 06:47:03;;;;;;;;;;;21.60;79.10;;;;;;5016443;28;1583;-66
2021/07/23 06:49:29;;;;;;;;;;;21.60;79.10;;;;;;5015198;28;1442;-67
2021/07/23 06:51:54;;;;;;;;;;;21.60;79.10;;;;;;5029158;28;1647;-67
2021/07/23 06:54:20;;;;;;;;;;;21.60;79.10;;;;;;5014596;28;1650;-67
2021/07/23 06:56:45;;;;;;;;;;;21.60;79.10;;;;;;5015398;28;1365;-66
2021/07/23 06:59:11;;;;;;;;;;;21.60;79.10;;;;;;5015660;28;1076;-67
2021/07/23 07:01:36;;;;;;;;;;;21.60;79.10;;;;;;5011176;28;1301;-67
2021/07/23 07:04:01;;;;;;;;;;;21.60;79.10;;;;;;5035536;28;1910;-67
2021/07/23 07:06:27;;;;;;;;;;;21.60;79.10;;;;;;5022374;28;1667;-67
2021/07/23 07:08:52;;;;;;;;;;;21.60;79.10;;;;;;5035756;28;1583;-67
2021/07/23 07:11:18;;;;;;;;;;;21.60;79.10;;;;;;5035795;28;1453;-67
2021/07/23 07:13:43;;;;;;;;;;;21.60;79.10;;;;;;5035625;28;1640;-67
2021/07/23 07:16:10;;;;;;;;;;;21.60;79.10;;;;;;5035289;28;1447;-67
2021/07/23 07:18:36;;;;;;;;;;;21.60;79.10;;;;;;5035782;28;1190;-68
2021/07/23 07:21:01;;;;;;;;;;;21.60;79.10;;;;;;5033821;28;1341;-68
2021/07/23 07:23:26;;;;;;;;;;;21.60;79.20;;;;;;5015599;28;1953;-68
2021/07/23 07:25:52;;;;;;;;;;;21.60;79.10;;;;;;4997896;28;1201;-68
2021/07/23 07:28:17;;;;;;;;;;;21.60;79.10;;;;;;5015753;28;1653;-68
2021/07/23 07:30:46;;;;;;;;;;;21.60;79.10;;;;;;5015714;28;1661;-68
2021/07/23 07:33:11;;;;;;;;;;;21.60;79.10;;;;;;5015764;28;1686;-68
2021/07/23 07:35:37;;;;;;;;;;;21.60;79.10;;;;;;5015257;28;1708;-68
2021/07/23 07:38:03;;;;;;;;;;;21.60;79.10;;;;;;5015584;28;1738;-68
2021/07/23 07:40:28;;;;;;;;;;;21.60;79.10;;;;;;5015564;28;1710;-68
2021/07/23 07:42:54;;;;;;;;;;;21.60;79.10;;;;;;5015255;28;1414;-68
2021/07/23 07:45:19;;;;;;;;;;;21.60;79.10;;;;;;5014742;28;1955;-68
2021/07/23 07:47:44;;;;;;;;;;;21.60;79.20;;;;;;5015428;28;1594;-68
2021/07/23 07:50:10;;;;;;;;;;;21.60;79.20;;;;;;5015285;28;1557;-67
2021/07/23 07:52:35;;;;;;;;;;;21.60;79.10;;;;;;5014822;28;1397;-67
2021/07/23 07:55:01;;;;;;;;;;;21.60;79.10;;;;;;4997099;28;1471;-67
2021/07/23 07:57:26;;;;;;;;;;;21.60;79.10;;;;;;5015394;28;1342;-67
2021/07/23 07:59:52;;;;;;;;;;;21.60;79.20;;;;;;4997733;28;1378;-67
2021/07/23 08:02:18;;;;;;;;;;;21.60;79.10;;;;;;5015118;28;1682;-67
2021/07/23 08:04:44;;;;;;;;;;;21.60;79.10;;;;;;5015158;28;1902;-67
2021/07/23 08:07:10;;;;;;;;;;;21.60;79.10;;;;;;5034490;28;1609;-67
2021/07/23 08:09:57;;;;;;;;;;;21.60;79.10;;;;;;5022640;28;1659;-67
2021/07/23 08:12:23;;;;;;;;;;;21.60;79.10;;;;;;4993315;28;1655;-67
2021/07/23 08:14:48;;;;;;;;;;;21.60;79.10;;;;;;5013549;28;1253;-67
2021/07/23 08:17:14;;;;;;;;;;;21.60;79.10;;;;;;4997198;28;1160;-67
2021/07/23 08:19:39;;;;;;;;;;;21.60;79.20;;;;;;5014380;28;1136;-67
2021/07/23 08:22:05;;;;;;;;;;;21.60;79.10;;;;;;5021733;28;1049;-67
2021/07/23 08:24:30;;;;;;;;;;;21.60;79.10;;;;;;5014122;28;1902;-67
2021/07/23 08:26:56;;;;;;;;;;;21.60;79.20;;;;;;4997089;28;1132;-67
2021/07/23 08:29:21;;;;;;;;;;;21.60;79.10;;;;;;5014362;28;1125;-67
2021/07/23 08:31:46;;;;;;;;;;;21.60;79.10;;;;;;5014408;28;1077;-67
2021/07/23 08:34:12;;;;;;;;;;;21.60;79.10;;;;;;4996195;28;1270;-67
2021/07/23 08:36:37;;;;;;;;;;;21.60;79.10;;;;;;5014269;28;1069;-68
2021/07/23 08:39:03;;;;;;;;;;;21.60;79.20;;;;;;5014322;28;1152;-67
2021/07/23 08:41:29;;;;;;;;;;;21.60;79.20;;;;;;4996238;28;1086;-67
2021/07/23 08:43:54;;;;;;;;;;;21.60;79.20;;;;;;5013800;28;1971;-67
2021/07/23 08:46:20;;;;;;;;;;;21.60;79.20;;;;;;5013944;28;1082;-67
2021/07/23 08:48:45;;;;;;;;;;;21.60;79.20;;;;;;5013954;28;1113;-68
2021/07/23 08:51:11;;;;;;;;;;;21.60;79.20;;;;;;5013952;28;1089;-67
2021/07/23 08:53:36;;;;;;;;;;;21.60;79.20;;;;;;5014005;28;1327;-67
2021/07/23 08:56:02;;;;;;;;;;;21.60;79.20;;;;;;4996130;28;1042;-68
2021/07/23 08:58:28;;;;;;;;;;;21.60;79.20;;;;;;4979518;28;1300;-67
2021/07/23 09:00:57;;;;;;;;;;;21.60;79.20;;;;;;5013838;28;1074;-67
2021/07/23 09:03:25;;;;;;;;;;;21.60;79.20;;;;;;5013513;28;1926;-67
2021/07/23 09:05:50;;;;;;;;;;;21.60;79.20;;;;;;5012806;28;1085;-68
2021/07/23 09:08:16;;;;;;;;;;;21.60;79.20;;;;;;5013836;28;1077;-66
2021/07/23 09:10:42;;;;;;;;;;;21.60;79.20;;;;;;4996228;28;1165;-67
2021/07/23 09:13:07;;;;;;;;;;;21.60;79.20;;;;;;4996138;28;1133;-67
2021/07/23 09:15:40;;;;;;;;;;;21.60;79.20;;;;;;5013207;28;1241;-68
2021/07/23 09:18:07;;;;;;;;;;;21.60;79.20;;;;;;5013660;28;986;-67
2021/07/23 09:20:33;;;;;;;;;;;21.60;79.20;;;;;;5000435;28;1177;-67
2021/07/23 09:23:02;;;;;;;;;;;21.60;79.20;;;;;;5016697;28;1021;-67
2021/07/23 09:25:34;;;;;;;;;;;21.60;79.20;;;;;;5013178;28;1919;-67
2021/07/23 09:27:59;;;;;;;;;;;21.60;79.20;;;;;;4995803;28;1035;-67
2021/07/23 09:30:35;;;;;;;;;;;21.60;79.20;;;;;;5013247;28;1109;-67
2021/07/23 09:33:00;;;;;;;;;;;21.60;79.20;;;;;;4995684;28;1368;-66
2021/07/23 09:35:25;;;;;;;;;;;21.60;79.90;;;;;;5013061;28;1278;-67
2021/07/23 09:37:54;;;;;;;;;;;21.60;79.20;;;;;;5013274;28;1124;-67
2021/07/23 09:40:20;;;;;;;;;;;21.60;79.20;;;;;;5013447;28;1124;-67
2021/07/23 09:43:12;;;;;;;;;;;21.60;79.20;;;;;;4995570;28;1160;-67
2021/07/23 09:45:38;;;;;;;;;;;21.60;79.20;;;;;;5009672;28;1246;-67
2021/07/23 09:48:12;;;;;;;;;;;21.60;79.20;;;;;;5013300;28;1084;-67
2021/07/23 09:50:43;;;;;;;;;;;21.60;79.20;;;;;;5013007;28;1117;-68
2021/07/23 09:53:13;;;;;;;;;;;21.60;79.20;;;;;;4996138;28;1203;-67
2021/07/23 09:55:39;;;;;;;;;;;21.60;79.20;;;;;;4994796;28;1459;-68
2021/07/23 09:58:09;;;;;;;;;;;21.60;79.20;;;;;;5012929;28;1132;-67
2021/07/23 10:00:38;;;;;;;;;;;21.60;79.20;;;;;;4995953;28;1030;-68
2021/07/23 10:03:07;;;;;;;;;;;21.60;79.20;;;;;;5012887;28;1073;-67
2021/07/23 10:05:37;;;;;;;;;;;21.60;79.20;;;;;;4995030;28;1906;-67
2021/07/23 10:08:06;;;;;;;;;;;21.60;79.20;;;;;;5012809;28;1545;-67
2021/07/23 10:10:33;;;;;;;;;;;21.60;79.20;;;;;;5013082;28;990;-67
2021/07/23 10:12:58;;;;;;;;;;;21.60;79.20;;;;;;4995559;28;1105;-67
2021/07/23 10:15:24;;;;;;;;;;;21.60;79.20;;;;;;5012577;28;1267;-67
2021/07/23 10:17:49;;;;;;;;;;;21.60;79.10;;;;;;5016587;28;1196;-67
2021/07/23 10:20:17;;;;;;;;;;;21.60;79.10;;;;;;5001267;28;1078;-67
2021/07/23 10:22:43;;;;;;;;;;;21.60;79.20;;;;;;5020007;28;1248;-67
2021/07/23 10:25:08;;;;;;;;;;;21.60;79.20;;;;;;5016297;28;1898;-67
2021/07/23 10:27:33;;;;;;;;;;;21.60;79.10;;;;;;5016858;28;1124;-67
2021/07/23 10:29:59;;;;;;;;;;;21.60;79.10;;;;;;5016743;28;1128;-67
2021/07/23 10:32:25;;;;;;;;;;;21.60;79.10;;;;;;5016494;28;978;-67
2021/07/23 10:34:54;;;;;;;;;;;21.60;79.10;;;;;;5016245;28;1302;-68
2021/07/23 10:37:28;;;;;;;;;;;21.60;79.10;;;;;;5016377;28;1140;-67
2021/07/23 10:40:08;;;;;;;;;;;21.60;79.10;;;;;;5016628;28;1069;-67
2021/07/23 10:42:43;;;;;;;;;;;21.60;79.10;;;;;;5016391;28;1109;-67
2021/07/23 10:45:09;;;;;;;;;;;21.60;79.10;;;;;;4998288;28;1986;-67
2021/07/23 10:47:35;;;;;;;;;;;21.60;79.10;;;;;;4998696;28;1181;-67
2021/07/23 10:50:01;;;;;;;;;;;21.60;79.10;;;;;;5016328;28;1073;-67
2021/07/23 10:52:27;;;;;;;;;;;21.60;79.10;;;;;;5016295;28;1116;-67
2021/07/23 10:55:11;;;;;;;;;;;21.60;79.10;;;;;;5047836;22;3623;-71
2021/07/23 10:57:37;;;;;;;;;;;21.60;79.20;;;;;;5053853;28;878;-71
2021/07/23 11:00:04;;;;;;;;;;;21.60;79.20;;;;;;5053818;28;1059;-71
2021/07/23 11:02:29;;;;;;;;;;;21.60;79.20;;;;;;5055158;28;1139;-71
2021/07/23 11:05:07;;;;;;;;;;;21.60;79.20;;;;;;5054574;28;1950;-71
2021/07/23 11:07:33;;;;;;;;;;;21.60;79.20;;;;;;5043099;28;1139;-71
2021/07/23 11:09:58;;;;;;;;;;;21.60;79.20;;;;;;5051527;28;1087;-71
2021/07/23 11:12:25;;;;;;;;;;;21.60;79.20;;;;;;5055174;28;1051;-71
2021/07/23 11:14:54;;;;;;;;;;;21.60;79.20;;;;;;5035412;28;1306;-71
2021/07/23 11:17:20;;;;;;;;;;;21.60;79.20;;;;;;5046445;28;1079;-70
2021/07/23 11:19:45;;;;;;;;;;;21.60;79.10;;;;;;5037179;28;1332;-71
2021/07/23 11:22:11;;;;;;;;;;;21.60;79.10;;;;;;5042693;28;1186;-71
2021/07/23 11:24:37;;;;;;;;;;;21.60;79.20;;;;;;5050516;28;1957;-71
2021/07/23 11:27:02;;;;;;;;;;;21.60;79.10;;;;;;5054792;28;1142;-71
2021/07/23 11:29:38;;;;;;;;;;;21.60;79.20;;;;;;5035153;28;1067;-71
2021/07/23 11:32:08;;;;;;;;;;;21.60;79.10;;;;;;5045953;28;1099;-71
2021/07/23 11:34:38;;;;;;;;;;;21.60;79.20;;;;;;5053907;28;1275;-71
2021/07/23 11:37:14;;;;;;;;;;;21.60;79.20;;;;;;5054698;28;1118;-71
2021/07/23 11:39:54;;;;;;;;;;;21.60;79.10;;;;;;5054494;28;1537;-71
2021/07/23 11:42:20;;;;;;;;;;;21.60;79.10;;;;;;5053238;28;1399;-71
2021/07/23 11:44:49;;;;;;;;;;;21.60;79.10;;;;;;5042490;28;1907;-71
2021/07/23 11:47:15;;;;;;;;;;;21.60;79.10;;;;;;5037351;28;1151;-71
2021/07/23 11:49:40;;;;;;;;;;;21.60;79.10;;;;;;5053377;28;1059;-71
2021/07/23 11:52:05;;;;;;;;;;;21.60;79.20;;;;;;5037274;28;996;-71
2021/07/23 11:54:31;;;;;;;;;;;21.60;79.10;;;;;;5033785;28;1339;-71
2021/07/23 11:57:00;;;;;;;;;;;21.60;79.10;;;;;;5034369;28;1174;-71
2021/07/23 11:59:25;;;;;;;;;;;21.60;79.20;;;;;;5033252;28;1099;-71
2021/07/23 12:01:50;;;;;;;;;;;21.60;79.10;;;;;;5034285;28;1131;-71
2021/07/23 12:04:16;;;;;;;;;;;21.60;79.10;;;;;;5033409;28;1949;-71
2021/07/23 12:06:44;;;;;;;;;;;21.60;79.10;;;;;;5034237;28;1084;-71
2021/07/23 12:09:10;;;;;;;;;;;21.60;79.10;;;;;;5034469;28;1060;-71
2021/07/23 12:11:35;;;;;;;;;;;21.60;79.10;;;;;;5032964;28;1071;-71
2021/07/23 12:14:07;;;;;;;;;;;21.60;79.10;;;;;;5032277;28;1302;-71
2021/07/23 12:16:33;;;;;;;;;;;21.60;79.10;;;;;;5032815;28;1457;-71
2021/07/23 12:18:59;;;;;;;;;;;21.60;79.10;;;;;;5033828;28;1107;-71
2021/07/23 12:21:27;;;;;;;;;;;21.60;79.10;;;;;;5039810;28;1056;-71
2021/07/23 12:24:04;;;;;;;;;;;21.60;79.10;;;;;;5032384;28;1898;-71
2021/07/23 12:26:34;;;;;;;;;;;21.60;79.10;;;;;;5038540;28;972;-71
2021/07/23 12:29:00;;;;;;;;;;;21.60;79.10;;;;;;5039160;28;1162;-71
2021/07/23 12:31:25;;;;;;;;;;;21.60;79.10;;;;;;5053668;28;1281;-70
2021/07/23 12:34:06;;;;;;;;;;;21.60;79.10;;;;;;5053167;28;1177;-71
2021/07/23 12:36:39;;;;;;;;;;;21.60;79.10;;;;;;5053614;28;1044;-71
2021/07/23 12:39:04;;;;;;;;;;;21.60;79.10;;;;;;5053634;28;1190;-71
2021/07/23 12:41:30;;;;;;;;;;;21.60;79.10;;;;;;5053479;28;1111;-71
2021/07/23 12:44:11;;;;;;;;;;;21.60;79.10;;;;;;5049717;28;1958;-71
2021/07/23 12:46:37;;;;;;;;;;;21.60;79.10;;;;;;5032339;28;1155;-71
2021/07/23 12:49:18;;;;;;;;;;;21.60;79.10;;;;;;5032640;28;1202;-71
2021/07/23 12:51:43;;;;;;;;;;;21.60;79.10;;;;;;5033294;28;1087;-71
2021/07/23 12:54:10;;;;;;;;;;;21.60;79.10;;;;;;5032985;28;1294;-71
2021/07/23 12:56:37;;;;;;;;;;;21.60;79.10;;;;;;5045370;28;1158;-71
2021/07/23 12:59:21;;;;;;;;;;;21.60;79.10;;;;;;5033231;28;1127;-71
2021/07/23 13:01:46;;;;;;;;;;;21.60;79.10;;;;;;5033330;28;1100;-71
2021/07/23 13:04:12;;;;;;;;;;;21.60;79.10;;;;;;5032954;28;1899;-71
2021/07/23 13:06:37;;;;;;;;;;;21.60;79.10;;;;;;5032018;28;1565;-71
2021/07/23 13:09:03;;;;;;;;;;;21.60;79.10;;;;;;5031812;28;1334;-71
2021/07/23 13:11:28;;;;;;;;;;;21.60;79.10;;;;;;5032441;28;1181;-71
2021/07/23 13:13:54;;;;;;;;;;;21.60;79.10;;;;;;5033073;28;1271;-71
2021/07/23 13:16:19;;;;;;;;;;;21.60;79.10;;;;;;5032401;28;1048;-71
2021/07/23 13:18:45;;;;;;;;;;;21.60;79.10;;;;;;5033218;28;1087;-71
2021/07/23 13:21:11;;;;;;;;;;;21.60;79.10;;;;;;5040391;28;1150;-71
2021/07/23 13:23:37;;;;;;;;;;;21.60;79.10;;;;;;5031913;28;1976;-71
2021/07/23 13:26:02;;;;;;;;;;;21.60;79.10;;;;;;5030620;28;1227;-71
2021/07/23 13:28:28;;;;;;;;;;;21.60;79.10;;;;;;5033206;28;1064;-71
2021/07/23 13:30:54;;;;;;;;;;;21.60;79.10;;;;;;5032823;28;1115;-71
2021/07/23 13:33:19;;;;;;;;;;;21.60;79.10;;;;;;5032334;28;1107;-71
2021/07/23 13:35:45;;;;;;;;;;;21.60;79.10;;;;;;5032298;28;1245;-71
2021/07/23 13:38:11;;;;;;;;;;;21.60;79.90;;;;;;5031687;28;1064;-71
2021/07/23 13:40:37;;;;;;;;;;;21.60;79.10;;;;;;5031184;28;1079;-71
2021/07/23 13:43:03;;;;;;;;;;;21.60;79.10;;;;;;5032489;28;1110;-71
2021/07/23 13:45:30;;;;;;;;;;;21.60;79.10;;;;;;5030272;28;1961;-71
2021/07/23 13:47:56;;;;;;;;;;;21.60;79.10;;;;;;5042262;28;1110;-71
2021/07/23 13:50:21;;;;;;;;;;;21.60;79.10;;;;;;5052320;28;1047;-71
2021/07/23 13:52:47;;;;;;;;;;;21.60;79.10;;;;;;5042754;28;1111;-71
2021/07/23 13:55:12;;;;;;;;;;;21.60;79.10;;;;;;5030948;28;1281;-71
2021/07/23 13:57:38;;;;;;;;;;;21.60;79.10;;;;;;5032215;28;1115;-71
2021/07/23 14:00:07;;;;;;;;;;;21.60;79.10;;;;;;5031448;28;1123;-71
2021/07/23 14:02:38;;;;;;;;;;;21.60;79.10;;;;;;5031112;28;1135;-71
2021/07/23 14:05:03;;;;;;;;;;;21.60;79.10;;;;;;5032488;28;1973;-71
2021/07/23 14:07:29;;;;;;;;;;;21.60;79.10;;;;;;5030451;28;1056;-71
2021/07/23 14:09:58;;;;;;;;;;;21.60;79.10;;;;;;5032456;28;1087;-71
2021/07/23 14:12:25;;;;;;;;;;;21.60;79.10;;;;;;5032483;28;1056;-71
2021/07/23 14:14:50;;;;;;;;;;;21.60;79.10;;;;;;5032392;28;1345;-71
2021/07/23 14:17:15;;;;;;;;;;;21.60;79.10;;;;;;5032146;28;1688;-71
2021/07/23 14:19:43;;;;;;;;;;;21.60;79.10;;;;;;5032375;28;1075;-71
2021/07/23 14:22:09;;;;;;;;;;;21.60;79.10;;;;;;5038645;28;1171;-71
2021/07/23 14:24:34;;;;;;;;;;;21.60;79.10;;;;;;5031524;28;1902;-71
2021/07/23 14:27:01;;;;;;;;;;;21.60;79.10;;;;;;5031584;28;1122;-71